HST,Max TemperatureF,Mean TemperatureF,Min TemperatureF,Max Dew PointF,MeanDew PointF,Min DewpointF,Max Humidity, Mean Humidity, Min Humidity, Max Sea Level PressureIn, Mean Sea Level PressureIn, Min Sea Level PressureIn, Max VisibilityMiles, Mean VisibilityMiles, Min VisibilityMiles, Max Wind SpeedMPH, Mean Wind SpeedMPH, Max Gust SpeedMPH,PrecipitationIn, CloudCover, Events, WindDirDegrees
2013-11-1,83,77,70,72,70,68,97,81,65,30.10,30.05,30.00,10,8,2,14,6,23,0.24,7,Rain,289
2013-11-2,78,74,69,72,69,67,100,85,69,30.11,30.06,30.01,10,8,1,20,6,23,0.66,7,Rain,279
2013-11-3,82,75,68,70,68,65,93,80,67,30.09,30.04,29.97,10,10,7,12,6,15,0.20,5,Rain,272
2013-11-4,80,75,69,73,69,66,97,86,74,30.06,30.01,29.96,10,9,2,12,4,13,0.25,6,Rain,231
2013-11-5,79,73,67,73,69,65,100,90,79,30.03,29.98,29.94,10,9,2,10,4,13,0.15,6,Rain,225
2013-11-6,83,77,71,73,70,68,100,85,69,29.99,29.95,29.88,10,9,2,14,5,19,0.07,6,Rain,238
2013-11-7,84,77,69,73,70,65,100,84,67,30.01,29.96,29.90,10,9,2,13,6,16,0.11,7,Rain,209
2013-11-8,84,78,71,72,70,67,100,83,65,30.01,29.95,29.88,10,10,2,10,5,13,0.14,5,Rain,208
2013-11-9,85,76,67,72,64,53,84,70,55,29.93,29.88,29.83,10,10,10,16,7,18,0.00,6,,227
2013-11-10,82,76,70,72,69,64,100,79,58,29.97,29.90,29.83,10,8,1,21,9,27,1.44,7,Rain,26
2013-11-11,74,71,68,69,67,64,100,90,79,30.00,29.95,29.91,10,7,2,18,7,24,1.81,8,Rain,294
2013-11-12,79,74,68,65,64,61,87,71,54,30.01,29.96,29.91,10,10,10,8,4,10,0.00,6,,269
2013-11-13,79,75,70,69,67,65,87,77,67,30.02,29.98,29.94,10,10,10,13,5,15,T,8,,257
2013-11-14,82,78,73,77,73,69,100,90,79,30.01,29.95,29.90,10,9,1,14,7,18,0.66,6,Rain,182
2013-11-15,84,77,70,74,72,64,94,80,65,30.08,30.04,29.98,10,10,9,17,6,23,0.01,6,Rain,179
2013-11-16,85,75,65,71,67,63,93,74,55,30.07,30.03,29.97,10,10,10,15,6,19,0.02,5,,189
2013-11-17,85,78,70,71,69,66,87,73,59,30.02,29.97,29.90,10,10,10,18,7,23,T,5,,185
2013-11-18,85,77,69,71,69,65,87,76,65,30.01,29.96,29.89,10,10,10,16,6,21,0.00,6,,173
2013-11-19,81,76,70,72,68,64,90,80,69,30.01,29.96,29.91,10,10,10,14,7,,0.00,5,Rain,190
2013-11-20,85,78,70,72,68,63,93,79,65,30.00,29.96,29.89,10,10,9,21,7,24,0.00,5,,182
2013-11-21,81,75,69,74,70,65,100,87,74,30.02,29.98,29.92,10,10,10,13,4,15,T,4,,162
2013-11-22,85,76,67,72,67,58,100,79,58,30.03,29.98,29.94,10,10,10,16,8,23,0.00,2,,308
2013-11-23,81,74,66,70,64,57,87,75,62,30.02,29.97,29.91,10,10,2,23,8,26,0.13,5,Rain,300
2013-11-24,84,76,68,67,64,61,84,66,47,30.00,29.97,29.91,10,10,10,16,7,20,T,6,Rain,309
2013-11-25,85,77,69,70,66,63,84,71,58,30.09,30.02,29.97,10,10,10,13,5,15,0.01,6,Rain,230
2013-11-26,85,76,67,70,67,63,90,75,59,30.11,30.06,29.99,10,10,5,15,6,19,0.05,6,Rain,180
2013-11-27,88,80,71,69,64,56,74,58,42,30.09,30.04,29.96,10,10,10,16,7,20,T,5,Rain,210
2013-11-28,94,81,68,67,64,57,90,64,38,30.04,30.00,29.91,10,10,10,17,8,22,T,3,,201
2013-11-29,82,74,66,72,68,61,100,87,74,30.02,29.97,29.92,10,8,2,20,7,24,0.27,7,Rain,192
2013-11-30,84,76,67,70,68,64,100,79,58,30.04,29.99,29.92,10,10,10,18,8,24,T,4,,171